Buoy 13637

sailwx.info

Track history (hours):
 
Tides and Currents Weather Stations Pressure Air Temp Water Temp Dewpoint Dewpoint Depression Visibility Wind Speed Wind Dir Waves Ship Positions

Drifting buoy 13637

Last reported at 2017-Sep-20 20:20 UTC. Time now 2017-Sep-21 01:43 UTC.
Position N 44°59' W 006°25'.

Water temperature 19.2 ° C

Date/timePositionNaut miles runAvg speedWind from/ knotsBaromVisibWave heightAir tempDewpointWater temp
2017-Sep-20 20:20N 44°59' W 006°25'0 4.2 19.2
2017-Sep-20 20:14N 44°59' W 006°26'0 0.0 19.2
2017-Sep-20 20:13N 44°59' W 006°26'1 0.8 19.2
2017-Sep-20 19:27N 44°58' W 006°26'0 0.0 19.2
2017-Sep-20 19:22N 44°58' W 006°26'0 0.0 19.2
2017-Sep-20 18:54N 44°58' W 006°26'1 3.9 19.2
2017-Sep-20 18:41N 44°58' W 006°27'0 0.0 19.2
2017-Sep-20 18:32N 44°58' W 006°27'1 0.7 19.3
2017-Sep-20 17:40N 44°58' W 006°27'0 0.0 19.3
2017-Sep-20 17:11N 44°58' W 006°27'1 2.4 19.3
2017-Sep-20 16:56N 44°57' W 006°27'1 9.0 19.3
2017-Sep-20 16:52N 44°56' W 006°27'0 0.0 19.3
2017-Sep-20 15:55N 44°56' W 006°27'0 0.0
2017-Sep-20 15:33N 44°56' W 006°27'0 3.2 19.4
2017-Sep-20 15:25N 44°56' W 006°28'117.6 19.4
2017-Sep-20 15:20N 44°55' W 006°26'0 0.0 19.4
2017-Sep-20 13:52N 44°55' W 006°26'0 4.2 19.4
2017-Sep-20 13:46N 44°55' W 006°27'0 8.5 19.4
2017-Sep-20 13:43N 44°55' W 006°26'0 0.0 19.4
2017-Sep-20 12:15N 44°55' W 006°26'0 0.5 19.3
2017-Sep-20 11:22N 44°55' W 006°26'0 0.0 19.2
2017-Sep-20 11:19N 44°55' W 006°26'0 0.0 19.2
2017-Sep-20 10:40N 44°55' W 006°26'0 0.0 19.2
2017-Sep-20 10:37N 44°55' W 006°26'0 0.0 19.2
2017-Sep-20 10:34N 44°55' W 006°26'0 3.2 19.2
2017-Sep-20 10:26N 44°55' W 006°25'112.0 19.2
2017-Sep-20 10:23N 44°55' W 006°25'1 0.9 19.2
2017-Sep-20 09:45N 44°55' W 006°25'0 0.0 19.1
2017-Sep-20 09:42N 44°55' W 006°25'1 9.0 19.1
2017-Sep-20 09:38N 44°55' W 006°25'0 0.0 19.1
2017-Sep-20 08:48N 44°55' W 006°25'0 0.0 19.1
2017-Sep-20 07:55N 44°55' W 006°25'0 0.0 19.1
2017-Sep-20 07:16N 44°55' W 006°25'0 0.0 19.1
2017-Sep-20 07:05N 44°55' W 006°25'0 0.0 19.1
2017-Sep-20 06:45N 44°55' W 006°25'0 0.0 19.1
2017-Sep-20 06:42N 44°55' W 006°25'0 0.9 19.1
2017-Sep-20 06:15N 44°55' W 006°26'0 0.0 19.1
2017-Sep-20 05:42N 44°55' W 006°26'0 0.0 19.1
2017-Sep-20 05:39N 44°55' W 006°26'1 1.9 19.1
2017-Sep-20 05:01N 44°53' W 006°26'0 0.0 19.1
2017-Sep-20 04:01N 44°53' W 006°26'0 0.0 19.1
2017-Sep-20 03:53N 44°53' W 006°26'1 0.8 19.1
2017-Sep-20 02:15N 44°52' W 006°25'0 0.0 19.0
2017-Sep-19 23:09N 44°52' W 006°25'0 0.0 19.1
2017-Sep-19 23:00N 44°52' W 006°25'0 0.0
2017-Sep-19 22:22N 44°52' W 006°25'0 3.2 19.2
2017-Sep-19 22:14N 44°52' W 006°25'0 0.0 19.2
2017-Sep-19 21:30N 44°52' W 006°25'0 0.0 19.3
2017-Sep-19 21:22N 44°52' W 006°25'0 0.0 19.3
2017-Sep-19 21:19N 44°52' W 006°25'0 0.0 19.3
2017-Sep-19 21:01N 44°52' W 006°25'0 0.0 19.4
2017-Sep-19 20:44N 44°52' W 006°25'0 0.0 19.4
2017-Sep-19 20:35N 44°52' W 006°25'0 0.0 19.4
2017-Sep-19 20:32N 44°52' W 006°25'0 0.0 19.5
2017-Sep-19 20:29N 44°52' W 006°25'0 0.0 19.5
2017-Sep-19 19:48N 44°52' W 006°25'0 0.0 19.5
2017-Sep-19 19:46N 44°52' W 006°25'0 0.0 19.5
2017-Sep-19 19:24N 44°52' W 006°25'1 1.4 19.5
2017-Sep-19 18:52N 44°52' W 006°25'1 4.0 19.5
2017-Sep-19 18:43N 44°52' W 006°25'1 1.0 19.5
2017-Sep-19 18:07N 44°52' W 006°25'0 0.0 19.5
2017-Sep-19 18:01N 44°52' W 006°25'0 0.0 19.5
2017-Sep-19 17:45N 44°52' W 006°25'1 1.5 19.5
2017-Sep-19 17:21N 44°51' W 006°25'0 2.0 19.6
2017-Sep-19 17:08N 44°51' W 006°26'0 0.0 19.6
2017-Sep-19 16:25N 44°51' W 006°26'1 0.9 19.9
2017-Sep-19 15:44N 44°50' W 006°26'1 0.4 19.9
2017-Sep-19 14:02N 44°50' W 006°26'0 0.0 20.0
2017-Sep-19 13:57N 44°50' W 006°26'0 0.3 20.0
2017-Sep-19 12:31N 44°50' W 006°25'0 0.0
2017-Sep-19 11:45N 44°50' W 006°25'0 0.0 19.5
2017-Sep-19 11:42N 44°50' W 006°25'0 0.0 19.5
2017-Sep-19 10:58N 44°50' W 006°25'0 0.0 19.4
2017-Sep-19 10:50N 44°50' W 006°25'0 0.0 19.4
2017-Sep-19 10:41N 44°50' W 006°25'0 0.0 19.3
2017-Sep-19 10:38N 44°50' W 006°25'0 0.0 19.3
2017-Sep-19 10:01N 44°50' W 006°25'114.7 19.2
2017-Sep-19 09:58N 44°50' W 006°25'0 0.0 19.2
2017-Sep-19 09:16N 44°50' W 006°25'112.0
2017-Sep-19 09:13N 44°50' W 006°25'0 0.0 19.1
2017-Sep-19 09:01N 44°50' W 006°25'0 0.0
2017-Sep-19 09:00N 44°50' W 006°25'1 1.1 19.1
2017-Sep-19 08:20N 44°50' W 006°25'0 0.0 19.0
2017-Sep-19 08:16N 44°50' W 006°25'0 0.0 19.0
2017-Sep-19 07:29N 44°50' W 006°25'0 1.8 19.0
2017-Sep-19 07:15N 44°50' W 006°26'0 0.0 19.0
2017-Sep-19 07:14N 44°50' W 006°26'0 8.5 19.0
2017-Sep-19 07:11N 44°50' W 006°25'0 0.0 19.0
2017-Sep-19 06:42N 44°50' W 006°25'1 0.9 19.0
2017-Sep-19 05:53N 44°50' W 006°26'0 0.0 19.0
2017-Sep-19 05:50N 44°50' W 006°26'0 0.0 19.0
2017-Sep-19 05:36N 44°50' W 006°26'1 0.5 19.0
2017-Sep-19 04:12N 44°49' W 006°26'0 0.0 19.0
2017-Sep-19 04:06N 44°49' W 006°26'0 0.0 19.0
2017-Sep-19 03:54N 44°49' W 006°26'0 0.0 19.0
2017-Sep-19 02:29N 44°49' W 006°26'1 0.4 19.0
2017-Sep-18 23:29N 44°48' W 006°26'1 1.3 19.1
2017-Sep-18 22:42N 44°49' W 006°25'0 0.0 19.1
2017-Sep-18 22:36N 44°49' W 006°25'0 0.0 19.1
2017-Sep-18 21:51N 44°49' W 006°25'1 5.7 19.1
2017-Sep-18 21:42N 44°49' W 006°23'1 1.1 19.1
2017-Sep-18 21:01N 44°49' W 006°24'0 0.0 19.1
2017-Sep-18 20:55N 44°49' W 006°24'1 3.7 19.1
2017-Sep-18 20:43N 44°50' W 006°23'0 0.0 19.1
2017-Sep-18 20:11N 44°50' W 006°23'0 0.0 19.1
2017-Sep-18 20:01N 44°50' W 006°23'0 0.0 19.1
2017-Sep-18 19:56N 44°50' W 006°23'0 0.0 19.1
2017-Sep-18 19:52N 44°50' W 006°23'1 0.7 19.1
2017-Sep-18 19:01N 44°50' W 006°23'0 0.0 19.1
2017-Sep-18 18:58N 44°50' W 006°23'0 0.9 19.1
2017-Sep-18 18:31N 44°50' W 006°24'114.7 19.1
2017-Sep-18 18:28N 44°50' W 006°25'1 3.2 19.1
2017-Sep-18 18:14N 44°50' W 006°24'0 0.0 19.1
2017-Sep-18 18:12N 44°50' W 006°24'0 0.0 19.1
2017-Sep-18 17:34N 44°50' W 006°24'0 0.0 19.1
2017-Sep-18 17:30N 44°50' W 006°24'0 0.0 19.1
2017-Sep-18 17:22N 44°50' W 006°24'1 5.1 19.1
2017-Sep-18 17:15N 44°51' W 006°24'1 1.6 19.1
2017-Sep-18 16:52N 44°50' W 006°24'0 0.4 19.1
2017-Sep-18 15:54N 44°50' W 006°25'0 6.4 19.1
2017-Sep-18 15:50N 44°50' W 006°25'0 0.3 19.1
2017-Sep-18 14:15N 44°50' W 006°25'0 0.0 19.0
2017-Sep-18 14:09N 44°50' W 006°25'1 1.0 19.0
2017-Sep-18 12:52N 44°49' W 006°24'0 0.0
2017-Sep-18 12:06N 44°49' W 006°24'0 0.0 19.0
2017-Sep-18 12:00N 44°49' W 006°24'0 0.0 18.9
2017-Sep-18 11:16N 44°49' W 006°24'0 4.3 18.9
2017-Sep-18 11:10N 44°49' W 006°23'0 0.0
2017-Sep-18 10:51N 44°49' W 006°23'1 8.5 18.9
2017-Sep-18 10:45N 44°49' W 006°22'0 0.0
2017-Sep-18 10:24N 44°49' W 006°22'0 0.0 18.9
2017-Sep-18 10:21N 44°49' W 006°22'0 0.0 18.9
2017-Sep-18 09:37N 44°49' W 006°22'1 6.3 18.9
2017-Sep-18 09:30N 44°49' W 006°22'0 0.0 18.9
2017-Sep-18 09:11N 44°49' W 006°22'1 2.2 18.9
2017-Sep-18 08:48N 44°49' W 006°20'1 7.4 18.9
2017-Sep-18 08:42N 44°49' W 006°20'0 0.0 18.9
2017-Sep-18 08:40N 44°49' W 006°20'1 0.6 18.9
2017-Sep-18 07:43N 44°49' W 006°20'1 4.4 18.9
2017-Sep-18 07:33N 44°49' W 006°19'0 0.0 18.9
2017-Sep-18 07:27N 44°49' W 006°19'1 2.1 18.9
2017-Sep-18 07:03N 44°49' W 006°18'117.0 18.9
2017-Sep-18 07:00N 44°49' W 006°19'1 0.9 18.9
2017-Sep-18 06:02N 44°49' W 006°18'0 0.7 18.9
2017-Sep-18 05:25N 44°49' W 006°17'1 1.5 18.9
2017-Sep-18 04:28N 44°50' W 006°16'0 0.0 18.9
2017-Sep-18 04:24N 44°50' W 006°16'1 6.9 18.9
2017-Sep-18 04:15N 44°51' W 006°15'1 0.4 18.9
2017-Sep-18 02:41N 44°52' W 006°15'1 0.4 18.9
2017-Sep-17 23:48N 44°50' W 006°15'0 0.5 18.8
2017-Sep-17 22:56N 44°50' W 006°14'0 0.0 18.8
2017-Sep-17 22:11N 44°50' W 006°14'0 2.6 18.8
2017-Sep-17 22:01N 44°50' W 006°15'0 0.0
2017-Sep-17 21:24N 44°50' W 006°15'1 5.1 18.9
2017-Sep-17 21:17N 44°50' W 006°15'0 0.0 18.9
2017-Sep-17 20:55N 44°50' W 006°15'0 0.0 18.9
2017-Sep-17 20:22N 44°50' W 006°15'1 1.2 18.9
2017-Sep-17 19:40N 44°50' W 006°14'0 0.0 18.9
2017-Sep-17 19:14N 44°50' W 006°14'0 0.0 18.9
2017-Sep-17 18:53N 44°50' W 006°14'0 0.0 18.9
2017-Sep-17 18:49N 44°50' W 006°14'0 0.0 18.9
2017-Sep-17 18:46N 44°50' W 006°14'1 0.7 18.9
2017-Sep-17 17:44N 44°50' W 006°13'0 0.0 18.9
2017-Sep-17 17:34N 44°50' W 006°13'0 0.0 18.9
2017-Sep-17 17:29N 44°50' W 006°13'0 0.0 18.9
2017-Sep-17 17:15N 44°50' W 006°13'1 2.8 18.9
2017-Sep-17 16:59N 44°51' W 006°13'0 0.0 19.0
2017-Sep-17 16:01N 44°51' W 006°13'1 0.4 19.0
2017-Sep-17 14:26N 44°52' W 006°13'1 7.4 19.0
2017-Sep-17 14:20N 44°52' W 006°12'115.6 19.0
2017-Sep-17 14:16N 44°53' W 006°13'0 0.0 19.0
2017-Sep-17 12:23N 44°53' W 006°13'1 1.0 19.0
2017-Sep-17 11:39N 44°53' W 006°14'0 2.6 19.0
2017-Sep-17 11:29N 44°53' W 006°14'0 0.0 19.0
2017-Sep-17 11:01N 44°53' W 006°14'0 0.0 19.0
2017-Sep-17 10:59N 44°53' W 006°14'0 0.0 19.0
2017-Sep-17 10:48N 44°53' W 006°14'0 0.0 19.0
2017-Sep-17 10:45N 44°53' W 006°14'114.7 19.0
2017-Sep-17 10:42N 44°54' W 006°15'0 0.0 19.0
2017-Sep-17 09:59N 44°54' W 006°15'1 5.1 18.9
2017-Sep-17 09:49N 44°54' W 006°16'0 0.0
2017-Sep-17 09:27N 44°54' W 006°16'0 5.1 18.9
2017-Sep-17 09:22N 44°54' W 006°16'0 0.0 18.9
2017-Sep-17 09:20N 44°54' W 006°16'1 3.2 18.9
2017-Sep-17 09:06N 44°53' W 006°16'0 0.0 18.9
2017-Sep-17 09:03N 44°53' W 006°16'0 0.5 18.9
2017-Sep-17 08:14N 44°53' W 006°17'0 0.0 18.9
2017-Sep-17 07:43N 44°53' W 006°17'1 4.3 18.9
2017-Sep-17 07:31N 44°53' W 006°18'0 0.5 18.9
2017-Sep-17 06:37N 44°53' W 006°17'0 0.0 18.9
2017-Sep-17 06:13N 44°53' W 006°17'136.0 18.9
2017-Sep-17 06:12N 44°54' W 006°17'0 0.0 18.9
2017-Sep-17 05:59N 44°54' W 006°17'0 0.0 18.9
2017-Sep-17 05:48N 44°54' W 006°17'0 0.0 18.9
2017-Sep-17 04:56N 44°54' W 006°17'0 1.0 18.9
2017-Sep-17 04:31N 44°54' W 006°18'0 0.0 18.9
2017-Sep-17 04:29N 44°54' W 006°18'1 0.4 18.9
2017-Sep-17 02:54N 44°55' W 006°18'2 0.4 19.1
2017-Sep-16 22:31N 44°56' W 006°20'0 3.6 19.2
2017-Sep-16 22:24N 44°56' W 006°20'0 0.6 19.2
2017-Sep-16 21:43N 44°56' W 006°20'0 0.0 19.2
2017-Sep-16 21:37N 44°56' W 006°20'0 0.7 19.2
2017-Sep-16 21:02N 44°56' W 006°20'0 0.0 19.2
2017-Sep-16 20:56N 44°56' W 006°20'0 6.4 19.2
2017-Sep-16 20:52N 44°56' W 006°20'1 5.7 19.2
2017-Sep-16 20:43N 44°56' W 006°21'0 0.6 19.2
2017-Sep-16 19:57N 44°56' W 006°22'0 0.0
2017-Sep-16 19:26N 44°56' W 006°22'0 2.3 19.2
2017-Sep-16 19:15N 44°56' W 006°21'1 7.4 19.2
2017-Sep-16 19:09N 44°56' W 006°22'0 0.0 19.2
2017-Sep-16 17:45N 44°56' W 006°22'0 0.0 19.3
2017-Sep-16 17:41N 44°56' W 006°22'0 0.0 19.3
2017-Sep-16 17:38N 44°56' W 006°22'122.1 19.3
2017-Sep-16 17:36N 44°57' W 006°21'0 0.0 19.3
2017-Sep-16 16:16N 44°57' W 006°21'1 2.1 19.3
2017-Sep-16 15:55N 44°58' W 006°22'0 0.0 19.3
2017-Sep-16 14:36N 44°58' W 006°22'0 4.2 19.3
2017-Sep-16 14:30N 44°58' W 006°22'1 0.8 19.3
2017-Sep-16 12:55N 44°59' W 006°22'0 8.5 19.4
2017-Sep-16 12:52N 44°59' W 006°23'0 0.0 19.4
2017-Sep-16 12:45N 44°59' W 006°23'0 0.0
2017-Sep-16 12:42N 44°59' W 006°23'1 0.9 19.3
2017-Sep-16 11:53N 44°59' W 006°23'0 0.0 19.3
2017-Sep-16 11:12N 44°59' W 006°23'0 0.0 19.3
2017-Sep-16 11:06N 44°59' W 006°23'1 8.5 19.3
2017-Sep-16 11:00N 44°59' W 006°25'0 0.0 19.3
2017-Sep-16 10:22N 44°59' W 006°25'0 0.0 19.3
2017-Sep-16 10:15N 44°59' W 006°25'117.0 19.3
2017-Sep-16 10:12N 44°59' W 006°26'0 0.0 19.3
2017-Sep-16 09:31N 44°59' W 006°26'0 3.6 19.3
2017-Sep-16 09:24N 44°59' W 006°25'110.4 19.3
2017-Sep-16 09:18N 45°00' W 006°26'0 0.0
2017-Sep-16 08:35N 45°00' W 006°26'1 1.2
2017-Sep-16 07:59N 44°59' W 006°27'0 0.0 19.3
2017-Sep-16 07:56N 44°59' W 006°27'0 0.0 19.3
2017-Sep-16 07:07N 44°59' W 006°27'0 0.0 19.3
2017-Sep-16 06:26N 44°59' W 006°27'0 8.5 19.3
2017-Sep-16 06:23N 44°59' W 006°26'0 0.0 19.3
2017-Sep-16 06:17N 44°59' W 006°26'0 0.0 19.3
2017-Sep-16 06:14N 44°59' W 006°26'118.0 19.3
2017-Sep-16 06:12N 44°59' W 006°26'0 0.0 19.3
2017-Sep-16 05:25N 44°59' W 006°26'0 0.7 19.3
2017-Sep-16 04:51N 44°59' W 006°26'0 0.0 19.3
2017-Sep-16 04:46N 44°59' W 006°26'1 6.3 19.3
2017-Sep-16 04:39N 44°59' W 006°25'0 0.0 19.3
2017-Sep-16 03:49N 44°59' W 006°25'0 0.0 19.3
2017-Sep-16 03:01N 44°59' W 006°25'248.7 19.3
2017-Sep-16 02:58N 45°02' W 006°26'0 0.0 19.3
2017-Sep-15 22:53N 45°02' W 006°26'1 4.4 19.3
2017-Sep-15 22:43N 45°02' W 006°26'0 0.0 19.3
2017-Sep-15 22:02N 45°02' W 006°26'0 5.1 19.3
2017-Sep-15 21:57N 45°02' W 006°27'0 0.0 19.3
2017-Sep-15 21:25N 45°02' W 006°27'0 6.4 19.3
2017-Sep-15 21:21N 45°02' W 006°28'0 0.0 19.3
2017-Sep-15 21:15N 45°02' W 006°28'0 0.0 19.3
2017-Sep-15 21:13N 45°02' W 006°28'0 2.3 19.3
2017-Sep-15 21:02N 45°02' W 006°28'0 0.0 19.3
2017-Sep-15 20:26N 45°02' W 006°28'0 2.3 19.3
2017-Sep-15 20:15N 45°02' W 006°29'0 0.0 19.3
2017-Sep-15 19:48N 45°02' W 006°29'0 0.0 19.3
2017-Sep-15 19:42N 45°02' W 006°29'0 0.0 19.3
2017-Sep-15 19:36N 45°02' W 006°29'0 0.0 19.3
2017-Sep-15 19:26N 45°02' W 006°29'0 0.3 19.4
2017-Sep-15 18:10N 45°02' W 006°29'0 2.8 19.3
2017-Sep-15 18:01N 45°02' W 006°30'0 0.0
2017-Sep-15 17:57N 45°02' W 006°30'0 0.0 19.3
2017-Sep-15 17:52N 45°02' W 006°30'0 0.3 19.3
2017-Sep-15 16:30N 45°02' W 006°29'0 0.0
2017-Sep-15 16:29N 45°02' W 006°29'0 0.0 19.4
2017-Sep-15 16:23N 45°02' W 006°29'1 0.4 19.4
2017-Sep-15 14:49N 45°03' W 006°29'0 0.0 19.3
2017-Sep-15 14:42N 45°03' W 006°29'1 0.8 19.3
2017-Sep-15 13:06N 45°04' W 006°29'0 0.0 19.3
2017-Sep-15 12:59N 45°04' W 006°29'0 0.0 19.2
2017-Sep-15 12:15N 45°04' W 006°29'0 0.0 19.3
2017-Sep-15 11:27N 45°04' W 006°29'0 0.6 19.2
2017-Sep-15 10:41N 45°04' W 006°29'1 8.9 19.2
2017-Sep-15 10:34N 45°05' W 006°31'0 0.0
2017-Sep-15 09:59N 45°05' W 006°31'0 0.0 19.2
2017-Sep-15 09:45N 45°05' W 006°31'0 0.0
2017-Sep-15 09:44N 45°05' W 006°31'0 0.6 19.2
2017-Sep-15 08:58N 45°05' W 006°31'0 3.6 19.0
2017-Sep-15 08:51N 45°05' W 006°32'0 0.0 19.0
2017-Sep-15 08:19N 45°05' W 006°32'0 0.0 18.9
2017-Sep-15 08:10N 45°05' W 006°32'0 0.0 18.9
2017-Sep-15 08:01N 45°05' W 006°32'025.4 18.9
2017-Sep-15 08:00N 45°05' W 006°32'0 0.0 18.9
2017-Sep-15 07:39N 45°05' W 006°32'0 0.0 18.9
2017-Sep-15 07:36N 45°05' W 006°32'0 0.4 18.9
2017-Sep-15 06:36N 45°05' W 006°32'111.0 19.0
2017-Sep-15 06:32N 45°04' W 006°32'0 0.0 19.0
2017-Sep-15 06:24N 45°04' W 006°32'1 1.8 19.0
2017-Sep-15 06:00N 45°05' W 006°32'1 0.7 19.0
2017-Sep-15 04:58N 45°05' W 006°32'0 0.0 19.1
2017-Sep-15 04:54N 45°05' W 006°32'0 8.5 19.1
2017-Sep-15 04:51N 45°05' W 006°32'0 0.0 19.1
2017-Sep-15 04:14N 45°05' W 006°32'0 0.4 19.1
2017-Sep-15 03:15N 45°05' W 006°32'112.0 19.2
2017-Sep-15 03:09N 45°07' W 006°32'0 0.0 19.2
2017-Sep-14 23:13N 45°07' W 006°32'1 4.0 19.3
2017-Sep-14 23:04N 45°06' W 006°32'0 0.0 19.3
2017-Sep-14 22:26N 45°06' W 006°32'0 0.0 19.3
2017-Sep-14 22:20N 45°06' W 006°32'012.7 19.3
2017-Sep-14 22:18N 45°06' W 006°33'0 0.0 19.3
2017-Sep-14 21:34N 45°06' W 006°33'0 0.0 19.3
2017-Sep-14 21:28N 45°06' W 006°33'0 0.0 19.3
2017-Sep-14 21:25N 45°06' W 006°33'0 0.0 19.3
2017-Sep-14 21:20N 45°06' W 006°33'0 0.0
2017-Sep-14 20:44N 45°06' W 006°33'0 0.0 19.3
2017-Sep-14 20:16N 45°06' W 006°33'0 0.0 19.3
2017-Sep-14 20:10N 45°06' W 006°33'1 1.7 19.3
2017-Sep-14 19:49N 45°07' W 006°33'0 0.0 19.3
2017-Sep-14 19:45N 45°07' W 006°33'0 0.0 19.3
2017-Sep-14 18:42N 45°07' W 006°33'0 0.0 19.3
2017-Sep-14 18:39N 45°07' W 006°33'0 0.0 19.3
2017-Sep-14 18:32N 45°07' W 006°33'0 4.2 19.3
2017-Sep-14 18:26N 45°07' W 006°34'0 0.0 19.3
2017-Sep-14 18:10N 45°07' W 006°34'1 4.0 19.3
2017-Sep-14 18:01N 45°07' W 006°34'0 0.0 19.3
2017-Sep-14 16:56N 45°07' W 006°34'0 0.0 19.4
2017-Sep-14 16:49N 45°07' W 006°34'0 0.0 19.4
2017-Sep-14 16:40N 45°07' W 006°34'025.4 19.4
2017-Sep-14 16:39N 45°07' W 006°34'0 0.0 19.4
2017-Sep-14 15:00N 45°07' W 006°34'111.0 19.4
2017-Sep-14 14:52N 45°08' W 006°35'0 0.0 19.4
2017-Sep-14 13:15N 45°08' W 006°35'0 0.3 19.4
2017-Sep-14 11:47N 45°08' W 006°36'114.7 19.4
2017-Sep-14 11:44N 45°09' W 006°35'1 1.2 19.4
2017-Sep-14 11:01N 45°09' W 006°37'1 0.8 19.3
2017-Sep-14 10:07N 45°08' W 006°37'114.7 19.2
2017-Sep-14 10:04N 45°09' W 006°38'0 2.8 19.2
2017-Sep-14 09:55N 45°09' W 006°37'1 1.3 19.2
2017-Sep-14 09:20N 45°08' W 006°38'0 6.3 19.2
2017-Sep-14 09:16N 45°08' W 006°38'1 0.9
2017-Sep-14 08:26N 45°08' W 006°38'0 2.5 18.9
2017-Sep-14 08:16N 45°08' W 006°38'0 0.0 18.9
2017-Sep-14 08:11N 45°08' W 006°38'0 8.5 18.9
2017-Sep-14 08:08N 45°08' W 006°39'0 0.4 18.9
2017-Sep-14 06:59N 45°08' W 006°38'0 0.0 18.5
2017-Sep-14 06:48N 45°08' W 006°38'0 0.0 18.5
2017-Sep-14 06:43N 45°08' W 006°38'1 5.1 18.5
2017-Sep-14 06:36N 45°08' W 006°38'1 9.0 18.5
2017-Sep-14 06:32N 45°08' W 006°38'1 0.5 18.5
2017-Sep-14 05:09N 45°08' W 006°38'0 1.3 18.5
2017-Sep-14 04:50N 45°08' W 006°38'1 1.0 18.5
2017-Sep-14 03:30N 45°10' W 006°39'317.0 18.5
2017-Sep-14 03:19N 45°13' W 006°40'1 0.2 18.5
2017-Sep-13 23:34N 45°13' W 006°41'0 0.0 18.6
2017-Sep-13 22:38N 45°13' W 006°41'0 0.0 18.5
2017-Sep-13 21:54N 45°13' W 006°41'0 2.8 18.5
2017-Sep-13 21:45N 45°13' W 006°41'0 0.0 18.5
2017-Sep-13 21:38N 45°13' W 006°41'0 0.0 18.5
2017-Sep-13 21:08N 45°13' W 006°41'0 0.0 18.5
2017-Sep-13 20:58N 45°13' W 006°41'0 0.0 18.5
2017-Sep-13 20:46N 45°13' W 006°41'1 1.4 18.5
2017-Sep-13 20:14N 45°13' W 006°42'0 0.0 18.5
2017-Sep-13 20:01N 45°13' W 006°42'0 5.1 18.5
2017-Sep-13 19:56N 45°13' W 006°41'1 1.4 18.5
2017-Sep-13 19:20N 45°13' W 006°43'0 0.0 18.5
2017-Sep-13 19:10N 45°13' W 006°43'0 1.8 18.5
2017-Sep-13 18:56N 45°13' W 006°43'1 9.0 18.5
2017-Sep-13 18:52N 45°13' W 006°43'0 0.0 18.5
2017-Sep-13 18:15N 45°13' W 006°43'136.0 18.5
2017-Sep-13 18:14N 45°13' W 006°43'1 0.9 18.5
2017-Sep-13 17:27N 45°12' W 006°44'1 2.5 18.5
2017-Sep-13 16:52N 45°13' W 006°45'1 5.1 18.5
2017-Sep-13 16:37N 45°13' W 006°47'0 0.0 18.5
2017-Sep-13 16:33N 45°13' W 006°47'0 0.0 18.5
2017-Sep-13 15:12N 45°13' W 006°47'1 0.5 18.5
2017-Sep-13 13:29N 45°13' W 006°48'112.7 18.6
2017-Sep-13 13:23N 45°13' W 006°50'1 0.5 18.6
2017-Sep-13 12:07N 45°14' W 006°50'0 0.0 18.5
2017-Sep-13 12:06N 45°14' W 006°50'1 1.9 18.5
2017-Sep-13 11:22N 45°13' W 006°52'0 0.0 18.5
2017-Sep-13 10:27N 45°13' W 006°52'114.7 18.5
2017-Sep-13 10:24N 45°14' W 006°52'0 0.0 18.5
2017-Sep-13 10:11N 45°14' W 006°52'0 0.0 18.4
2017-Sep-13 10:08N 45°14' W 006°52'2 2.9 18.4
2017-Sep-13 09:32N 45°13' W 006°54'0 0.0 18.4
2017-Sep-13 08:48N 45°13' W 006°54'0 0.0 18.4
2017-Sep-13 08:46N 45°13' W 006°54'0 4.2 18.4
2017-Sep-13 08:40N 45°13' W 006°55'0 0.0 18.4
2017-Sep-13 08:33N 45°13' W 006°55'0 0.0 18.4
2017-Sep-13 08:29N 45°13' W 006°55'1 7.3 18.4
2017-Sep-13 08:23N 45°12' W 006°55'1 0.5 18.4
2017-Sep-13 07:01N 45°11' W 006°56'1 8.8 18.4
2017-Sep-13 06:56N 45°12' W 006°55'0 0.0 18.4
2017-Sep-13 06:49N 45°12' W 006°55'1 0.5 18.4
2017-Sep-13 05:24N 45°11' W 006°56'0 0.0
2017-Sep-13 05:21N 45°11' W 006°56'0 0.0 18.4
2017-Sep-13 05:15N 45°11' W 006°56'0 0.3 18.4
2017-Sep-13 03:41N 45°11' W 006°55'0 0.0 18.4
2017-Sep-13 03:37N 45°11' W 006°55'3 0.8 18.4
2017-Sep-12 23:52N 45°14' W 006°58'0 0.0 18.4
2017-Sep-12 23:07N 45°14' W 006°58'110.4 18.4
2017-Sep-12 23:01N 45°14' W 006°59'0 0.0 18.4
2017-Sep-12 22:16N 45°14' W 006°59'214.6 18.5
2017-Sep-12 22:07N 45°14' W 007°02'0 0.0 18.5
2017-Sep-12 21:29N 45°14' W 007°02'0 0.0 18.6
2017-Sep-12 21:26N 45°14' W 007°02'0 4.2 18.6
2017-Sep-12 21:20N 45°14' W 007°01'0 5.1 18.6
2017-Sep-12 21:15N 45°14' W 007°02'0 0.0 18.6
2017-Sep-12 20:34N 45°14' W 007°02'0 3.2 18.6
2017-Sep-12 20:26N 45°14' W 007°02'0 0.0 18.6
2017-Sep-12 20:12N 45°14' W 007°02'0 0.0 18.6
2017-Sep-12 20:11N 45°14' W 007°02'0 1.0 18.6
2017-Sep-12 19:46N 45°14' W 007°03'0 0.0 18.6
2017-Sep-12 19:42N 45°14' W 007°03'0 8.5 18.6
2017-Sep-12 19:39N 45°14' W 007°04'131.1 18.6
2017-Sep-12 19:37N 45°13' W 007°05'1 3.2 18.6
2017-Sep-12 19:21N 45°13' W 007°04'1 1.7 18.7
2017-Sep-12 18:52N 45°13' W 007°05'0 0.0 18.7
2017-Sep-12 18:31N 45°13' W 007°05'1 7.3 18.7
2017-Sep-12 18:25N 45°13' W 007°05'0 0.0 18.7
2017-Sep-12 18:02N 45°13' W 007°05'0 1.1 18.7
2017-Sep-12 17:38N 45°13' W 007°06'1 1.0 18.7
2017-Sep-12 17:02N 45°12' W 007°06'1 4.2 18.7
2017-Sep-12 16:50N 45°12' W 007°07'112.7 18.7
2017-Sep-12 16:44N 45°11' W 007°07'0 0.0 18.7
2017-Sep-12 16:00N 45°11' W 007°07'1 1.0 18.7
2017-Sep-12 15:15N 45°10' W 007°07'0 0.0 18.6
2017-Sep-12 13:42N 45°10' W 007°07'1 9.0 18.5
2017-Sep-12 13:38N 45°11' W 007°07'1 0.5 18.5
2017-Sep-12 12:26N 45°11' W 007°07'0 0.0 18.5
2017-Sep-12 11:42N 45°11' W 007°07'0 3.6 18.5
2017-Sep-12 11:35N 45°11' W 007°08'0 0.0 18.5
2017-Sep-12 10:49N 45°11' W 007°08'0 0.0 18.5
2017-Sep-12 10:45N 45°11' W 007°08'0 0.0 18.5
2017-Sep-12 10:23N 45°11' W 007°08'0 0.0 18.5
2017-Sep-12 10:20N 45°11' W 007°08'1 8.8 18.5
2017-Sep-12 10:15N 45°12' W 007°07'0 0.0 18.5
2017-Sep-12 10:01N 45°12' W 007°07'0 5.1
2017-Sep-12 09:56N 45°12' W 007°08'1 0.7 18.4
2017-Sep-12 09:08N 45°13' W 007°08'0 0.0 18.4
2017-Sep-12 09:01N 45°13' W 007°08'0 0.0 18.4
2017-Sep-12 08:40N 45°13' W 007°08'0 6.3 18.4
2017-Sep-12 08:36N 45°13' W 007°08'0 0.0 18.4
2017-Sep-12 07:59N 45°13' W 007°08'1 6.0 18.4
2017-Sep-12 07:53N 45°13' W 007°08'1 2.2 18.4
2017-Sep-12 07:30N 45°13' W 007°10'1 1.6 18.4
2017-Sep-12 07:08N 45°14' W 007°10'0 0.0 18.4
2017-Sep-12 07:02N 45°14' W 007°10'1 1.3 18.4
2017-Sep-12 06:15N 45°13' W 007°11'0 1.2 18.4
2017-Sep-12 05:53N 45°13' W 007°11'1 2.4 18.4
2017-Sep-12 05:35N 45°14' W 007°12'0 0.0 18.4
2017-Sep-12 05:29N 45°14' W 007°12'1 1.0 18.4
2017-Sep-12 04:13N 45°13' W 007°13'0 0.0 18.4
2017-Sep-12 03:56N 45°13' W 007°13'0 0.0 18.4
2017-Sep-12 03:51N 45°13' W 007°13'218.0 18.4
2017-Sep-12 03:45N 45°14' W 007°13'0 0.0 18.4
2017-Sep-11 22:36N 45°14' W 007°13'1 6.9 18.4
2017-Sep-11 22:27N 45°15' W 007°11'0 0.0 18.4
2017-Sep-11 21:49N 45°15' W 007°11'0 0.0 18.4
2017-Sep-11 21:43N 45°15' W 007°11'1 1.8 18.4
2017-Sep-11 20:55N 45°16' W 007°13'1 4.0 18.4
2017-Sep-11 20:46N 45°16' W 007°13'0 0.0 18.4
2017-Sep-11 20:24N 45°16' W 007°13'012.7 18.4
2017-Sep-11 20:22N 45°16' W 007°13'0 3.2 18.4
2017-Sep-11 20:14N 45°16' W 007°13'0 0.0 18.4
2017-Sep-11 20:02N 45°16' W 007°13'012.7 18.4
2017-Sep-11 20:00N 45°16' W 007°14'0 0.0 18.4
2017-Sep-11 19:46N 45°16' W 007°14'0 0.0 18.4
2017-Sep-11 19:43N 45°16' W 007°14'0 0.0 18.4
2017-Sep-11 19:13N 45°16' W 007°14'1 2.1 18.4
2017-Sep-11 18:43N 45°17' W 007°15'0 3.2 18.4
2017-Sep-11 18:35N 45°17' W 007°16'0 0.0 18.4
2017-Sep-11 18:02N 45°17' W 007°16'1 1.1 18.4
2017-Sep-11 17:15N 45°17' W 007°17'0 0.0 18.4
2017-Sep-11 17:13N 45°17' W 007°17'0 0.0 18.4
2017-Sep-11 17:01N 45°17' W 007°17'0 5.1 18.4
2017-Sep-11 16:56N 45°17' W 007°16'0 0.0 18.4
2017-Sep-11 16:26N 45°17' W 007°16'1 1.5 18.4
2017-Sep-11 15:35N 45°17' W 007°18'1 0.5 18.4
2017-Sep-11 13:51N 45°17' W 007°19'1 8.8 18.5
2017-Sep-11 13:46N 45°16' W 007°20'2104.7 18.5
2017-Sep-11 13:45N 45°17' W 007°18'1 1.1 18.5
2017-Sep-11 12:48N 45°17' W 007°19'120.7 18.5
2017-Sep-11 12:45N 45°17' W 007°18'0 0.0 18.5
2017-Sep-11 12:01N 45°17' W 007°18'1 0.9 18.5
2017-Sep-11 11:11N 45°18' W 007°17'0 0.0 18.5
2017-Sep-11 11:09N 45°18' W 007°17'2 3.8 18.5
2017-Sep-11 10:31N 45°19' W 007°14'347.8 18.5
2017-Sep-11 10:27N 45°20' W 007°19'0 0.0 18.5
2017-Sep-11 10:22N 45°20' W 007°19'0 0.0 18.5
2017-Sep-11 10:12N 45°20' W 007°19'0 0.0 18.5
2017-Sep-11 09:59N 45°20' W 007°19'1 2.4 18.5
2017-Sep-11 09:27N 45°22' W 007°18'0 0.0 18.5
2017-Sep-11 08:53N 45°22' W 007°18'0 0.9 18.5
2017-Sep-11 08:24N 45°22' W 007°19'0 2.8 18.5
2017-Sep-11 08:15N 45°22' W 007°19'0 0.0 18.5
2017-Sep-11 08:02N 45°22' W 007°19'1 1.5 18.5
2017-Sep-11 07:21N 45°22' W 007°20'0 0.0 18.5
2017-Sep-11 07:13N 45°22' W 007°20'0 4.2 18.5
2017-Sep-11 07:07N 45°22' W 007°21'0 0.0 18.5
2017-Sep-11 06:41N 45°22' W 007°21'0 1.4 18.5
2017-Sep-11 06:23N 45°22' W 007°22'0 0.7 18.5
2017-Sep-11 05:47N 45°22' W 007°22'0 0.0 18.6
2017-Sep-11 05:42N 45°22' W 007°22'1 0.8 18.6
2017-Sep-11 04:45N 45°22' W 007°23'0 0.0 18.6
2017-Sep-11 04:42N 45°22' W 007°23'0 0.6 18.6
2017-Sep-11 04:01N 45°22' W 007°23'229.8 18.6
2017-Sep-11 03:57N 45°23' W 007°22'0 0.0 18.6
2017-Sep-11 02:18N 45°23' W 007°22'0 0.0
2017-Sep-10 22:56N 45°23' W 007°22'1 7.6 18.7
2017-Sep-10 22:46N 45°25' W 007°22'0 0.0 18.7
2017-Sep-10 22:08N 45°25' W 007°22'1 9.8 18.7
2017-Sep-10 21:59N 45°26' W 007°20'0 0.0 18.7
2017-Sep-10 21:15N 45°26' W 007°20'112.0 18.6
2017-Sep-10 21:08N 45°26' W 007°22'0 0.0 18.6
2017-Sep-10 21:05N 45°26' W 007°22'0 0.0 18.6
2017-Sep-10 20:44N 45°26' W 007°22'0 2.8 18.7
2017-Sep-10 20:35N 45°26' W 007°23'1 6.3 18.7
2017-Sep-10 20:28N 45°27' W 007°22'112.0 18.7
2017-Sep-10 20:25N 45°26' W 007°22'   18.7
Track history (hours):
 
Tides and Currents Weather Stations Pressure Air Temp Water Temp Dewpoint Dewpoint Depression Visibility Wind Speed Wind Dir Waves Ship Positions

Drifting buoy 13637

Last reported at 2017-Sep-20 20:20 UTC. Time now 2017-Sep-21 01:43 UTC.
Position N 44°59' W 006°25'.

Water temperature 19.2 ° C

Date/timePositionNaut miles runAvg speedWind from/ knotsBaromVisibWave heightAir tempDewpointWater temp
2017-Sep-20 20:20N 44°59' W 006°25'0 4.2 19.2
2017-Sep-20 20:14N 44°59' W 006°26'0 0.0 19.2
2017-Sep-20 20:13N 44°59' W 006°26'1 0.8 19.2
2017-Sep-20 19:27N 44°58' W 006°26'0 0.0 19.2
2017-Sep-20 19:22N 44°58' W 006°26'0 0.0 19.2
2017-Sep-20 18:54N 44°58' W 006°26'1 3.9 19.2
2017-Sep-20 18:41N 44°58' W 006°27'0 0.0 19.2
2017-Sep-20 18:32N 44°58' W 006°27'1 0.7 19.3
2017-Sep-20 17:40N 44°58' W 006°27'0 0.0 19.3
2017-Sep-20 17:11N 44°58' W 006°27'1 2.4 19.3
2017-Sep-20 16:56N 44°57' W 006°27'1 9.0 19.3
2017-Sep-20 16:52N 44°56' W 006°27'0 0.0 19.3
2017-Sep-20 15:55N 44°56' W 006°27'0 0.0
2017-Sep-20 15:33N 44°56' W 006°27'0 3.2 19.4
2017-Sep-20 15:25N 44°56' W 006°28'117.6 19.4
2017-Sep-20 15:20N 44°55' W 006°26'0 0.0 19.4
2017-Sep-20 13:52N 44°55' W 006°26'0 4.2 19.4
2017-Sep-20 13:46N 44°55' W 006°27'0 8.5 19.4
2017-Sep-20 13:43N 44°55' W 006°26'0 0.0 19.4
2017-Sep-20 12:15N 44°55' W 006°26'0 0.5 19.3
2017-Sep-20 11:22N 44°55' W 006°26'0 0.0 19.2
2017-Sep-20 11:19N 44°55' W 006°26'0 0.0 19.2
2017-Sep-20 10:40N 44°55' W 006°26'0 0.0 19.2
2017-Sep-20 10:37N 44°55' W 006°26'0 0.0 19.2
2017-Sep-20 10:34N 44°55' W 006°26'0 3.2 19.2
2017-Sep-20 10:26N 44°55' W 006°25'112.0 19.2
2017-Sep-20 10:23N 44°55' W 006°25'1 0.9 19.2
2017-Sep-20 09:45N 44°55' W 006°25'0 0.0 19.1
2017-Sep-20 09:42N 44°55' W 006°25'1 9.0 19.1
2017-Sep-20 09:38N 44°55' W 006°25'0 0.0 19.1
2017-Sep-20 08:48N 44°55' W 006°25'0 0.0 19.1
2017-Sep-20 07:55N 44°55' W 006°25'0 0.0 19.1
2017-Sep-20 07:16N 44°55' W 006°25'0 0.0 19.1
2017-Sep-20 07:05N 44°55' W 006°25'0 0.0 19.1
2017-Sep-20 06:45N 44°55' W 006°25'0 0.0 19.1
2017-Sep-20 06:42N 44°55' W 006°25'0 0.9 19.1
2017-Sep-20 06:15N 44°55' W 006°26'0 0.0 19.1
2017-Sep-20 05:42N 44°55' W 006°26'0 0.0 19.1
2017-Sep-20 05:39N 44°55' W 006°26'1 1.9 19.1
2017-Sep-20 05:01N 44°53' W 006°26'0 0.0 19.1
2017-Sep-20 04:01N 44°53' W 006°26'0 0.0 19.1
2017-Sep-20 03:53N 44°53' W 006°26'1 0.8 19.1
2017-Sep-20 02:15N 44°52' W 006°25'0 0.0 19.0
2017-Sep-19 23:09N 44°52' W 006°25'0 0.0 19.1
2017-Sep-19 23:00N 44°52' W 006°25'0 0.0
2017-Sep-19 22:22N 44°52' W 006°25'0 3.2 19.2
2017-Sep-19 22:14N 44°52' W 006°25'0 0.0 19.2
2017-Sep-19 21:30N 44°52' W 006°25'0 0.0 19.3
2017-Sep-19 21:22N 44°52' W 006°25'0 0.0 19.3
2017-Sep-19 21:19N 44°52' W 006°25'0 0.0 19.3
2017-Sep-19 21:01N 44°52' W 006°25'0 0.0 19.4
2017-Sep-19 20:44N 44°52' W 006°25'0 0.0 19.4
2017-Sep-19 20:35N 44°52' W 006°25'0 0.0 19.4
2017-Sep-19 20:32N 44°52' W 006°25'0 0.0 19.5
2017-Sep-19 20:29N 44°52' W 006°25'0 0.0 19.5
2017-Sep-19 19:48N 44°52' W 006°25'0 0.0 19.5
2017-Sep-19 19:46N 44°52' W 006°25'0 0.0 19.5
2017-Sep-19 19:24N 44°52' W 006°25'1 1.4 19.5
2017-Sep-19 18:52N 44°52' W 006°25'1 4.0 19.5
2017-Sep-19 18:43N 44°52' W 006°25'1 1.0 19.5
2017-Sep-19 18:07N 44°52' W 006°25'0 0.0 19.5
2017-Sep-19 18:01N 44°52' W 006°25'0 0.0 19.5
2017-Sep-19 17:45N 44°52' W 006°25'1 1.5 19.5
2017-Sep-19 17:21N 44°51' W 006°25'0 2.0 19.6
2017-Sep-19 17:08N 44°51' W 006°26'0 0.0 19.6
2017-Sep-19 16:25N 44°51' W 006°26'1 0.9 19.9
2017-Sep-19 15:44N 44°50' W 006°26'1 0.4 19.9
2017-Sep-19 14:02N 44°50' W 006°26'0 0.0 20.0
2017-Sep-19 13:57N 44°50' W 006°26'0 0.3 20.0
2017-Sep-19 12:31N 44°50' W 006°25'0 0.0
2017-Sep-19 11:45N 44°50' W 006°25'0 0.0 19.5
2017-Sep-19 11:42N 44°50' W 006°25'0 0.0 19.5
2017-Sep-19 10:58N 44°50' W 006°25'0 0.0 19.4
2017-Sep-19 10:50N 44°50' W 006°25'0 0.0 19.4
2017-Sep-19 10:41N 44°50' W 006°25'0 0.0 19.3
2017-Sep-19 10:38N 44°50' W 006°25'0 0.0 19.3
2017-Sep-19 10:01N 44°50' W 006°25'114.7 19.2
2017-Sep-19 09:58N 44°50' W 006°25'0 0.0 19.2
2017-Sep-19 09:16N 44°50' W 006°25'112.0
2017-Sep-19 09:13N 44°50' W 006°25'0 0.0 19.1
2017-Sep-19 09:01N 44°50' W 006°25'0 0.0
2017-Sep-19 09:00N 44°50' W 006°25'1 1.1 19.1
2017-Sep-19 08:20N 44°50' W 006°25'0 0.0 19.0
2017-Sep-19 08:16N 44°50' W 006°25'0 0.0 19.0
2017-Sep-19 07:29N 44°50' W 006°25'0 1.8 19.0
2017-Sep-19 07:15N 44°50' W 006°26'0 0.0 19.0
2017-Sep-19 07:14N 44°50' W 006°26'0 8.5 19.0
2017-Sep-19 07:11N 44°50' W 006°25'0 0.0 19.0
2017-Sep-19 06:42N 44°50' W 006°25'1 0.9 19.0
2017-Sep-19 05:53N 44°50' W 006°26'0 0.0 19.0
2017-Sep-19 05:50N 44°50' W 006°26'0 0.0 19.0
2017-Sep-19 05:36N 44°50' W 006°26'1 0.5 19.0
2017-Sep-19 04:12N 44°49' W 006°26'0 0.0 19.0
2017-Sep-19 04:06N 44°49' W 006°26'0 0.0 19.0
2017-Sep-19 03:54N 44°49' W 006°26'0 0.0 19.0
2017-Sep-19 02:29N 44°49' W 006°26'1 0.4 19.0
2017-Sep-18 23:29N 44°48' W 006°26'1 1.3 19.1
2017-Sep-18 22:42N 44°49' W 006°25'0 0.0 19.1
2017-Sep-18 22:36N 44°49' W 006°25'0 0.0 19.1
2017-Sep-18 21:51N 44°49' W 006°25'1 5.7 19.1
2017-Sep-18 21:42N 44°49' W 006°23'1 1.1 19.1
2017-Sep-18 21:01N 44°49' W 006°24'0 0.0 19.1
2017-Sep-18 20:55N 44°49' W 006°24'1 3.7 19.1
2017-Sep-18 20:43N 44°50' W 006°23'0 0.0 19.1
2017-Sep-18 20:11N 44°50' W 006°23'0 0.0 19.1
2017-Sep-18 20:01N 44°50' W 006°23'0 0.0 19.1
2017-Sep-18 19:56N 44°50' W 006°23'0 0.0 19.1
2017-Sep-18 19:52N 44°50' W 006°23'1 0.7 19.1
2017-Sep-18 19:01N 44°50' W 006°23'0 0.0 19.1
2017-Sep-18 18:58N 44°50' W 006°23'0 0.9 19.1
2017-Sep-18 18:31N 44°50' W 006°24'114.7 19.1
2017-Sep-18 18:28N 44°50' W 006°25'1 3.2 19.1
2017-Sep-18 18:14N 44°50' W 006°24'0 0.0 19.1
2017-Sep-18 18:12N 44°50' W 006°24'0 0.0 19.1
2017-Sep-18 17:34N 44°50' W 006°24'0 0.0 19.1
2017-Sep-18 17:30N 44°50' W 006°24'0 0.0 19.1
2017-Sep-18 17:22N 44°50' W 006°24'1 5.1 19.1
2017-Sep-18 17:15N 44°51' W 006°24'1 1.6 19.1
2017-Sep-18 16:52N 44°50' W 006°24'0 0.4 19.1
2017-Sep-18 15:54N 44°50' W 006°25'0 6.4 19.1
2017-Sep-18 15:50N 44°50' W 006°25'0 0.3 19.1
2017-Sep-18 14:15N 44°50' W 006°25'0 0.0 19.0
2017-Sep-18 14:09N 44°50' W 006°25'1 1.0 19.0
2017-Sep-18 12:52N 44°49' W 006°24'0 0.0
2017-Sep-18 12:06N 44°49' W 006°24'0 0.0 19.0
2017-Sep-18 12:00N 44°49' W 006°24'0 0.0 18.9
2017-Sep-18 11:16N 44°49' W 006°24'0 4.3 18.9
2017-Sep-18 11:10N 44°49' W 006°23'0 0.0
2017-Sep-18 10:51N 44°49' W 006°23'1 8.5 18.9
2017-Sep-18 10:45N 44°49' W 006°22'0 0.0
2017-Sep-18 10:24N 44°49' W 006°22'0 0.0 18.9
2017-Sep-18 10:21N 44°49' W 006°22'0 0.0 18.9
2017-Sep-18 09:37N 44°49' W 006°22'1 6.3 18.9
2017-Sep-18 09:30N 44°49' W 006°22'0 0.0 18.9
2017-Sep-18 09:11N 44°49' W 006°22'1 2.2 18.9
2017-Sep-18 08:48N 44°49' W 006°20'1 7.4 18.9
2017-Sep-18 08:42N 44°49' W 006°20'0 0.0 18.9
2017-Sep-18 08:40N 44°49' W 006°20'1 0.6 18.9
2017-Sep-18 07:43N 44°49' W 006°20'1 4.4 18.9
2017-Sep-18 07:33N 44°49' W 006°19'0 0.0 18.9
2017-Sep-18 07:27N 44°49' W 006°19'1 2.1 18.9
2017-Sep-18 07:03N 44°49' W 006°18'117.0 18.9
2017-Sep-18 07:00N 44°49' W 006°19'1 0.9 18.9
2017-Sep-18 06:02N 44°49' W 006°18'0 0.7 18.9
2017-Sep-18 05:25N 44°49' W 006°17'1 1.5 18.9
2017-Sep-18 04:28N 44°50' W 006°16'0 0.0 18.9
2017-Sep-18 04:24N 44°50' W 006°16'1 6.9 18.9
2017-Sep-18 04:15N 44°51' W 006°15'1 0.4 18.9
2017-Sep-18 02:41N 44°52' W 006°15'1 0.4 18.9
2017-Sep-17 23:48N 44°50' W 006°15'0 0.5 18.8
2017-Sep-17 22:56N 44°50' W 006°14'0 0.0 18.8
2017-Sep-17 22:11N 44°50' W 006°14'0 2.6 18.8
2017-Sep-17 22:01N 44°50' W 006°15'0 0.0
2017-Sep-17 21:24N 44°50' W 006°15'1 5.1 18.9
2017-Sep-17 21:17N 44°50' W 006°15'0 0.0 18.9
2017-Sep-17 20:55N 44°50' W 006°15'0 0.0 18.9
2017-Sep-17 20:22N 44°50' W 006°15'1 1.2 18.9
2017-Sep-17 19:40N 44°50' W 006°14'0 0.0 18.9
2017-Sep-17 19:14N 44°50' W 006°14'0 0.0 18.9
2017-Sep-17 18:53N 44°50' W 006°14'0 0.0 18.9
2017-Sep-17 18:49N 44°50' W 006°14'0 0.0 18.9
2017-Sep-17 18:46N 44°50' W 006°14'1 0.7 18.9
2017-Sep-17 17:44N 44°50' W 006°13'0 0.0 18.9
2017-Sep-17 17:34N 44°50' W 006°13'0 0.0 18.9
2017-Sep-17 17:29N 44°50' W 006°13'0 0.0 18.9
2017-Sep-17 17:15N 44°50' W 006°13'1 2.8 18.9
2017-Sep-17 16:59N 44°51' W 006°13'0 0.0 19.0
2017-Sep-17 16:01N 44°51' W 006°13'1 0.4 19.0
2017-Sep-17 14:26N 44°52' W 006°13'1 7.4 19.0
2017-Sep-17 14:20N 44°52' W 006°12'115.6 19.0
2017-Sep-17 14:16N 44°53' W 006°13'0 0.0 19.0
2017-Sep-17 12:23N 44°53' W 006°13'1 1.0 19.0
2017-Sep-17 11:39N 44°53' W 006°14'0 2.6 19.0
2017-Sep-17 11:29N 44°53' W 006°14'0 0.0 19.0
2017-Sep-17 11:01N 44°53' W 006°14'0 0.0 19.0
2017-Sep-17 10:59N 44°53' W 006°14'0 0.0 19.0
2017-Sep-17 10:48N 44°53' W 006°14'0 0.0 19.0
2017-Sep-17 10:45N 44°53' W 006°14'114.7 19.0
2017-Sep-17 10:42N 44°54' W 006°15'0 0.0 19.0
2017-Sep-17 09:59N 44°54' W 006°15'1 5.1 18.9
2017-Sep-17 09:49N 44°54' W 006°16'0 0.0
2017-Sep-17 09:27N 44°54' W 006°16'0 5.1 18.9
2017-Sep-17 09:22N 44°54' W 006°16'0 0.0 18.9
2017-Sep-17 09:20N 44°54' W 006°16'1 3.2 18.9
2017-Sep-17 09:06N 44°53' W 006°16'0 0.0 18.9
2017-Sep-17 09:03N 44°53' W 006°16'0 0.5 18.9
2017-Sep-17 08:14N 44°53' W 006°17'0 0.0 18.9
2017-Sep-17 07:43N 44°53' W 006°17'1 4.3 18.9
2017-Sep-17 07:31N 44°53' W 006°18'0 0.5 18.9
2017-Sep-17 06:37N 44°53' W 006°17'0 0.0 18.9
2017-Sep-17 06:13N 44°53' W 006°17'136.0 18.9
2017-Sep-17 06:12N 44°54' W 006°17'0 0.0 18.9
2017-Sep-17 05:59N 44°54' W 006°17'0 0.0 18.9
2017-Sep-17 05:48N 44°54' W 006°17'0 0.0 18.9
2017-Sep-17 04:56N 44°54' W 006°17'0 1.0 18.9
2017-Sep-17 04:31N 44°54' W 006°18'0 0.0 18.9
2017-Sep-17 04:29N 44°54' W 006°18'1 0.4 18.9
2017-Sep-17 02:54N 44°55' W 006°18'2 0.4 19.1
2017-Sep-16 22:31N 44°56' W 006°20'0 3.6 19.2
2017-Sep-16 22:24N 44°56' W 006°20'0 0.6 19.2
2017-Sep-16 21:43N 44°56' W 006°20'0 0.0 19.2
2017-Sep-16 21:37N 44°56' W 006°20'0 0.7 19.2
2017-Sep-16 21:02N 44°56' W 006°20'0 0.0 19.2
2017-Sep-16 20:56N 44°56' W 006°20'0 6.4 19.2
2017-Sep-16 20:52N 44°56' W 006°20'1 5.7 19.2
2017-Sep-16 20:43N 44°56' W 006°21'0 0.6 19.2
2017-Sep-16 19:57N 44°56' W 006°22'0 0.0
2017-Sep-16 19:26N 44°56' W 006°22'0 2.3 19.2
2017-Sep-16 19:15N 44°56' W 006°21'1 7.4 19.2
2017-Sep-16 19:09N 44°56' W 006°22'0 0.0 19.2
2017-Sep-16 17:45N 44°56' W 006°22'0 0.0 19.3
2017-Sep-16 17:41N 44°56' W 006°22'0 0.0 19.3
2017-Sep-16 17:38N 44°56' W 006°22'122.1 19.3
2017-Sep-16 17:36N 44°57' W 006°21'0 0.0 19.3
2017-Sep-16 16:16N 44°57' W 006°21'1 2.1 19.3
2017-Sep-16 15:55N 44°58' W 006°22'0 0.0 19.3
2017-Sep-16 14:36N 44°58' W 006°22'0 4.2 19.3
2017-Sep-16 14:30N 44°58' W 006°22'1 0.8 19.3
2017-Sep-16 12:55N 44°59' W 006°22'0 8.5 19.4
2017-Sep-16 12:52N 44°59' W 006°23'0 0.0 19.4
2017-Sep-16 12:45N 44°59' W 006°23'0 0.0
2017-Sep-16 12:42N 44°59' W 006°23'1 0.9 19.3
2017-Sep-16 11:53N 44°59' W 006°23'0 0.0 19.3
2017-Sep-16 11:12N 44°59' W 006°23'0 0.0 19.3
2017-Sep-16 11:06N 44°59' W 006°23'1 8.5 19.3
2017-Sep-16 11:00N 44°59' W 006°25'0 0.0 19.3
2017-Sep-16 10:22N 44°59' W 006°25'0 0.0 19.3
2017-Sep-16 10:15N 44°59' W 006°25'117.0 19.3
2017-Sep-16 10:12N 44°59' W 006°26'0 0.0 19.3
2017-Sep-16 09:31N 44°59' W 006°26'0 3.6 19.3
2017-Sep-16 09:24N 44°59' W 006°25'110.4 19.3
2017-Sep-16 09:18N 45°00' W 006°26'0 0.0
2017-Sep-16 08:35N 45°00' W 006°26'1 1.2
2017-Sep-16 07:59N 44°59' W 006°27'0 0.0 19.3
2017-Sep-16 07:56N 44°59' W 006°27'0 0.0 19.3
2017-Sep-16 07:07N 44°59' W 006°27'0 0.0 19.3
2017-Sep-16 06:26N 44°59' W 006°27'0 8.5 19.3
2017-Sep-16 06:23N 44°59' W 006°26'0 0.0 19.3
2017-Sep-16 06:17N 44°59' W 006°26'0 0.0 19.3
2017-Sep-16 06:14N 44°59' W 006°26'118.0 19.3
2017-Sep-16 06:12N 44°59' W 006°26'0 0.0 19.3
2017-Sep-16 05:25N 44°59' W 006°26'0 0.7 19.3
2017-Sep-16 04:51N 44°59' W 006°26'0 0.0 19.3
2017-Sep-16 04:46N 44°59' W 006°26'1 6.3 19.3
2017-Sep-16 04:39N 44°59' W 006°25'0 0.0 19.3
2017-Sep-16 03:49N 44°59' W 006°25'0 0.0 19.3
2017-Sep-16 03:01N 44°59' W 006°25'248.7 19.3
2017-Sep-16 02:58N 45°02' W 006°26'0 0.0 19.3
2017-Sep-15 22:53N 45°02' W 006°26'1 4.4 19.3
2017-Sep-15 22:43N 45°02' W 006°26'0 0.0 19.3
2017-Sep-15 22:02N 45°02' W 006°26'0 5.1 19.3
2017-Sep-15 21:57N 45°02' W 006°27'0 0.0 19.3
2017-Sep-15 21:25N 45°02' W 006°27'0 6.4 19.3
2017-Sep-15 21:21N 45°02' W 006°28'0 0.0 19.3
2017-Sep-15 21:15N 45°02' W 006°28'0 0.0 19.3
2017-Sep-15 21:13N 45°02' W 006°28'0 2.3 19.3
2017-Sep-15 21:02N 45°02' W 006°28'0 0.0 19.3
2017-Sep-15 20:26N 45°02' W 006°28'0 2.3 19.3
2017-Sep-15 20:15N 45°02' W 006°29'0 0.0 19.3
2017-Sep-15 19:48N 45°02' W 006°29'0 0.0 19.3
2017-Sep-15 19:42N 45°02' W 006°29'0 0.0 19.3
2017-Sep-15 19:36N 45°02' W 006°29'0 0.0 19.3
2017-Sep-15 19:26N 45°02' W 006°29'0 0.3 19.4
2017-Sep-15 18:10N 45°02' W 006°29'0 2.8 19.3
2017-Sep-15 18:01N 45°02' W 006°30'0 0.0
2017-Sep-15 17:57N 45°02' W 006°30'0 0.0 19.3
2017-Sep-15 17:52N 45°02' W 006°30'0 0.3 19.3
2017-Sep-15 16:30N 45°02' W 006°29'0 0.0
2017-Sep-15 16:29N 45°02' W 006°29'0 0.0 19.4
2017-Sep-15 16:23N 45°02' W 006°29'1 0.4 19.4
2017-Sep-15 14:49N 45°03' W 006°29'0 0.0 19.3
2017-Sep-15 14:42N 45°03' W 006°29'1 0.8 19.3
2017-Sep-15 13:06N 45°04' W 006°29'0 0.0 19.3
2017-Sep-15 12:59N 45°04' W 006°29'0 0.0 19.2
2017-Sep-15 12:15N 45°04' W 006°29'0 0.0 19.3
2017-Sep-15 11:27N 45°04' W 006°29'0 0.6 19.2
2017-Sep-15 10:41N 45°04' W 006°29'1 8.9 19.2
2017-Sep-15 10:34N 45°05' W 006°31'0 0.0
2017-Sep-15 09:59N 45°05' W 006°31'0 0.0 19.2
2017-Sep-15 09:45N 45°05' W 006°31'0 0.0
2017-Sep-15 09:44N 45°05' W 006°31'0 0.6 19.2
2017-Sep-15 08:58N 45°05' W 006°31'0 3.6 19.0
2017-Sep-15 08:51N 45°05' W 006°32'0 0.0 19.0
2017-Sep-15 08:19N 45°05' W 006°32'0 0.0 18.9
2017-Sep-15 08:10N 45°05' W 006°32'0 0.0 18.9
2017-Sep-15 08:01N 45°05' W 006°32'025.4 18.9
2017-Sep-15 08:00N 45°05' W 006°32'0 0.0 18.9
2017-Sep-15 07:39N 45°05' W 006°32'0 0.0 18.9
2017-Sep-15 07:36N 45°05' W 006°32'0 0.4 18.9
2017-Sep-15 06:36N 45°05' W 006°32'111.0 19.0
2017-Sep-15 06:32N 45°04' W 006°32'0 0.0 19.0
2017-Sep-15 06:24N 45°04' W 006°32'1 1.8 19.0
2017-Sep-15 06:00N 45°05' W 006°32'1 0.7 19.0
2017-Sep-15 04:58N 45°05' W 006°32'0 0.0 19.1
2017-Sep-15 04:54N 45°05' W 006°32'0 8.5 19.1
2017-Sep-15 04:51N 45°05' W 006°32'0 0.0 19.1
2017-Sep-15 04:14N 45°05' W 006°32'0 0.4 19.1
2017-Sep-15 03:15N 45°05' W 006°32'112.0 19.2
2017-Sep-15 03:09N 45°07' W 006°32'0 0.0 19.2
2017-Sep-14 23:13N 45°07' W 006°32'1 4.0 19.3
2017-Sep-14 23:04N 45°06' W 006°32'0 0.0 19.3
2017-Sep-14 22:26N 45°06' W 006°32'0 0.0 19.3
2017-Sep-14 22:20N 45°06' W 006°32'012.7 19.3
2017-Sep-14 22:18N 45°06' W 006°33'0 0.0 19.3
2017-Sep-14 21:34N 45°06' W 006°33'0 0.0 19.3
2017-Sep-14 21:28N 45°06' W 006°33'0 0.0 19.3
2017-Sep-14 21:25N 45°06' W 006°33'0 0.0 19.3
2017-Sep-14 21:20N 45°06' W 006°33'0 0.0
2017-Sep-14 20:44N 45°06' W 006°33'0 0.0 19.3
2017-Sep-14 20:16N 45°06' W 006°33'0 0.0 19.3
2017-Sep-14 20:10N 45°06' W 006°33'1 1.7 19.3
2017-Sep-14 19:49N 45°07' W 006°33'0 0.0 19.3
2017-Sep-14 19:45N 45°07' W 006°33'0 0.0 19.3
2017-Sep-14 18:42N 45°07' W 006°33'0 0.0 19.3
2017-Sep-14 18:39N 45°07' W 006°33'0 0.0 19.3
2017-Sep-14 18:32N 45°07' W 006°33'0 4.2 19.3
2017-Sep-14 18:26N 45°07' W 006°34'0 0.0 19.3
2017-Sep-14 18:10N 45°07' W 006°34'1 4.0 19.3
2017-Sep-14 18:01N 45°07' W 006°34'0 0.0 19.3
2017-Sep-14 16:56N 45°07' W 006°34'0 0.0 19.4
2017-Sep-14 16:49N 45°07' W 006°34'0 0.0 19.4
2017-Sep-14 16:40N 45°07' W 006°34'025.4 19.4
2017-Sep-14 16:39N 45°07' W 006°34'0 0.0 19.4
2017-Sep-14 15:00N 45°07' W 006°34'111.0 19.4
2017-Sep-14 14:52N 45°08' W 006°35'0 0.0 19.4
2017-Sep-14 13:15N 45°08' W 006°35'0 0.3 19.4
2017-Sep-14 11:47N 45°08' W 006°36'114.7 19.4
2017-Sep-14 11:44N 45°09' W 006°35'1 1.2 19.4
2017-Sep-14 11:01N 45°09' W 006°37'1 0.8 19.3
2017-Sep-14 10:07N 45°08' W 006°37'114.7 19.2
2017-Sep-14 10:04N 45°09' W 006°38'0 2.8 19.2
2017-Sep-14 09:55N 45°09' W 006°37'1 1.3 19.2
2017-Sep-14 09:20N 45°08' W 006°38'0 6.3 19.2
2017-Sep-14 09:16N 45°08' W 006°38'1 0.9
2017-Sep-14 08:26N 45°08' W 006°38'0 2.5 18.9
2017-Sep-14 08:16N 45°08' W 006°38'0 0.0 18.9
2017-Sep-14 08:11N 45°08' W 006°38'0 8.5 18.9
2017-Sep-14 08:08N 45°08' W 006°39'0 0.4 18.9
2017-Sep-14 06:59N 45°08' W 006°38'0 0.0 18.5
2017-Sep-14 06:48N 45°08' W 006°38'0 0.0 18.5
2017-Sep-14 06:43N 45°08' W 006°38'1 5.1 18.5
2017-Sep-14 06:36N 45°08' W 006°38'1 9.0 18.5
2017-Sep-14 06:32N 45°08' W 006°38'1 0.5 18.5
2017-Sep-14 05:09N 45°08' W 006°38'0 1.3 18.5
2017-Sep-14 04:50N 45°08' W 006°38'1 1.0 18.5
2017-Sep-14 03:30N 45°10' W 006°39'317.0 18.5
2017-Sep-14 03:19N 45°13' W 006°40'1 0.2 18.5
2017-Sep-13 23:34N 45°13' W 006°41'0 0.0 18.6
2017-Sep-13 22:38N 45°13' W 006°41'0 0.0 18.5
2017-Sep-13 21:54N 45°13' W 006°41'0 2.8 18.5
2017-Sep-13 21:45N 45°13' W 006°41'0 0.0 18.5
2017-Sep-13 21:38N 45°13' W 006°41'0 0.0 18.5
2017-Sep-13 21:08N 45°13' W 006°41'0 0.0 18.5
2017-Sep-13 20:58N 45°13' W 006°41'0 0.0 18.5
2017-Sep-13 20:46N 45°13' W 006°41'1 1.4 18.5
2017-Sep-13 20:14N 45°13' W 006°42'0 0.0 18.5
2017-Sep-13 20:01N 45°13' W 006°42'0 5.1 18.5
2017-Sep-13 19:56N 45°13' W 006°41'1 1.4 18.5
2017-Sep-13 19:20N 45°13' W 006°43'0 0.0 18.5
2017-Sep-13 19:10N 45°13' W 006°43'0 1.8 18.5
2017-Sep-13 18:56N 45°13' W 006°43'1 9.0 18.5
2017-Sep-13 18:52N 45°13' W 006°43'0 0.0 18.5
2017-Sep-13 18:15N 45°13' W 006°43'136.0 18.5
2017-Sep-13 18:14N 45°13' W 006°43'1 0.9 18.5
2017-Sep-13 17:27N 45°12' W 006°44'1 2.5 18.5
2017-Sep-13 16:52N 45°13' W 006°45'1 5.1 18.5
2017-Sep-13 16:37N 45°13' W 006°47'0 0.0 18.5
2017-Sep-13 16:33N 45°13' W 006°47'0 0.0 18.5
2017-Sep-13 15:12N 45°13' W 006°47'1 0.5 18.5
2017-Sep-13 13:29N 45°13' W 006°48'112.7 18.6
2017-Sep-13 13:23N 45°13' W 006°50'1 0.5 18.6
2017-Sep-13 12:07N 45°14' W 006°50'0 0.0 18.5
2017-Sep-13 12:06N 45°14' W 006°50'1 1.9 18.5
2017-Sep-13 11:22N 45°13' W 006°52'0 0.0 18.5
2017-Sep-13 10:27N 45°13' W 006°52'114.7 18.5
2017-Sep-13 10:24N 45°14' W 006°52'0 0.0 18.5
2017-Sep-13 10:11N 45°14' W 006°52'0 0.0 18.4
2017-Sep-13 10:08N 45°14' W 006°52'2 2.9 18.4
2017-Sep-13 09:32N 45°13' W 006°54'0 0.0 18.4
2017-Sep-13 08:48N 45°13' W 006°54'0 0.0 18.4
2017-Sep-13 08:46N 45°13' W 006°54'0 4.2 18.4
2017-Sep-13 08:40N 45°13' W 006°55'0 0.0 18.4
2017-Sep-13 08:33N 45°13' W 006°55'0 0.0 18.4
2017-Sep-13 08:29N 45°13' W 006°55'1 7.3 18.4
2017-Sep-13 08:23N 45°12' W 006°55'1 0.5 18.4
2017-Sep-13 07:01N 45°11' W 006°56'1 8.8 18.4
2017-Sep-13 06:56N 45°12' W 006°55'0 0.0 18.4
2017-Sep-13 06:49N 45°12' W 006°55'1 0.5 18.4
2017-Sep-13 05:24N 45°11' W 006°56'0 0.0
2017-Sep-13 05:21N 45°11' W 006°56'0 0.0 18.4
2017-Sep-13 05:15N 45°11' W 006°56'0 0.3 18.4
2017-Sep-13 03:41N 45°11' W 006°55'0 0.0 18.4
2017-Sep-13 03:37N 45°11' W 006°55'3 0.8 18.4
2017-Sep-12 23:52N 45°14' W 006°58'0 0.0 18.4
2017-Sep-12 23:07N 45°14' W 006°58'110.4 18.4
2017-Sep-12 23:01N 45°14' W 006°59'0 0.0 18.4
2017-Sep-12 22:16N 45°14' W 006°59'214.6 18.5
2017-Sep-12 22:07N 45°14' W 007°02'0 0.0 18.5
2017-Sep-12 21:29N 45°14' W 007°02'0 0.0 18.6
2017-Sep-12 21:26N 45°14' W 007°02'0 4.2 18.6
2017-Sep-12 21:20N 45°14' W 007°01'0 5.1 18.6
2017-Sep-12 21:15N 45°14' W 007°02'0 0.0 18.6
2017-Sep-12 20:34N 45°14' W 007°02'0 3.2 18.6
2017-Sep-12 20:26N 45°14' W 007°02'0 0.0 18.6
2017-Sep-12 20:12N 45°14' W 007°02'0 0.0 18.6
2017-Sep-12 20:11N 45°14' W 007°02'0 1.0 18.6
2017-Sep-12 19:46N 45°14' W 007°03'0 0.0 18.6
2017-Sep-12 19:42N 45°14' W 007°03'0 8.5 18.6
2017-Sep-12 19:39N 45°14' W 007°04'131.1 18.6
2017-Sep-12 19:37N 45°13' W 007°05'1 3.2 18.6
2017-Sep-12 19:21N 45°13' W 007°04'1 1.7 18.7
2017-Sep-12 18:52N 45°13' W 007°05'0 0.0 18.7
2017-Sep-12 18:31N 45°13' W 007°05'1 7.3 18.7
2017-Sep-12 18:25N 45°13' W 007°05'0 0.0 18.7
2017-Sep-12 18:02N 45°13' W 007°05'0 1.1 18.7
2017-Sep-12 17:38N 45°13' W 007°06'1 1.0 18.7
2017-Sep-12 17:02N 45°12' W 007°06'1 4.2 18.7
2017-Sep-12 16:50N 45°12' W 007°07'112.7 18.7
2017-Sep-12 16:44N 45°11' W 007°07'0 0.0 18.7
2017-Sep-12 16:00N 45°11' W 007°07'1 1.0 18.7
2017-Sep-12 15:15N 45°10' W 007°07'0 0.0 18.6
2017-Sep-12 13:42N 45°10' W 007°07'1 9.0 18.5
2017-Sep-12 13:38N 45°11' W 007°07'1 0.5 18.5
2017-Sep-12 12:26N 45°11' W 007°07'0 0.0 18.5
2017-Sep-12 11:42N 45°11' W 007°07'0 3.6 18.5
2017-Sep-12 11:35N 45°11' W 007°08'0 0.0 18.5
2017-Sep-12 10:49N 45°11' W 007°08'0 0.0 18.5
2017-Sep-12 10:45N 45°11' W 007°08'0 0.0 18.5
2017-Sep-12 10:23N 45°11' W 007°08'0 0.0 18.5
2017-Sep-12 10:20N 45°11' W 007°08'1 8.8 18.5
2017-Sep-12 10:15N 45°12' W 007°07'0 0.0 18.5
2017-Sep-12 10:01N 45°12' W 007°07'0 5.1
2017-Sep-12 09:56N 45°12' W 007°08'1 0.7 18.4
2017-Sep-12 09:08N 45°13' W 007°08'0 0.0 18.4
2017-Sep-12 09:01N 45°13' W 007°08'0 0.0 18.4
2017-Sep-12 08:40N 45°13' W 007°08'0 6.3 18.4
2017-Sep-12 08:36N 45°13' W 007°08'0 0.0 18.4
2017-Sep-12 07:59N 45°13' W 007°08'1 6.0 18.4
2017-Sep-12 07:53N 45°13' W 007°08'1 2.2 18.4
2017-Sep-12 07:30N 45°13' W 007°10'1 1.6 18.4
2017-Sep-12 07:08N 45°14' W 007°10'0 0.0 18.4
2017-Sep-12 07:02N 45°14' W 007°10'1 1.3 18.4
2017-Sep-12 06:15N 45°13' W 007°11'0 1.2 18.4
2017-Sep-12 05:53N 45°13' W 007°11'1 2.4 18.4
2017-Sep-12 05:35N 45°14' W 007°12'0 0.0 18.4
2017-Sep-12 05:29N 45°14' W 007°12'1 1.0 18.4
2017-Sep-12 04:13N 45°13' W 007°13'0 0.0 18.4
2017-Sep-12 03:56N 45°13' W 007°13'0 0.0 18.4
2017-Sep-12 03:51N 45°13' W 007°13'218.0 18.4
2017-Sep-12 03:45N 45°14' W 007°13'0 0.0 18.4
2017-Sep-11 22:36N 45°14' W 007°13'1 6.9 18.4
2017-Sep-11 22:27N 45°15' W 007°11'0 0.0 18.4
2017-Sep-11 21:49N 45°15' W 007°11'0 0.0 18.4
2017-Sep-11 21:43N 45°15' W 007°11'1 1.8 18.4
2017-Sep-11 20:55N 45°16' W 007°13'1 4.0 18.4
2017-Sep-11 20:46N 45°16' W 007°13'0 0.0 18.4
2017-Sep-11 20:24N 45°16' W 007°13'012.7 18.4
2017-Sep-11 20:22N 45°16' W 007°13'0 3.2 18.4
2017-Sep-11 20:14N 45°16' W 007°13'0 0.0 18.4
2017-Sep-11 20:02N 45°16' W 007°13'012.7 18.4
2017-Sep-11 20:00N 45°16' W 007°14'0 0.0 18.4
2017-Sep-11 19:46N 45°16' W 007°14'0 0.0 18.4
2017-Sep-11 19:43N 45°16' W 007°14'0 0.0 18.4
2017-Sep-11 19:13N 45°16' W 007°14'1 2.1 18.4
2017-Sep-11 18:43N 45°17' W 007°15'0 3.2 18.4
2017-Sep-11 18:35N 45°17' W 007°16'0 0.0 18.4
2017-Sep-11 18:02N 45°17' W 007°16'1 1.1 18.4
2017-Sep-11 17:15N 45°17' W 007°17'0 0.0 18.4
2017-Sep-11 17:13N 45°17' W 007°17'0 0.0 18.4
2017-Sep-11 17:01N 45°17' W 007°17'0 5.1 18.4
2017-Sep-11 16:56N 45°17' W 007°16'0 0.0 18.4
2017-Sep-11 16:26N 45°17' W 007°16'1 1.5 18.4
2017-Sep-11 15:35N 45°17' W 007°18'1 0.5 18.4
2017-Sep-11 13:51N 45°17' W 007°19'1 8.8 18.5
2017-Sep-11 13:46N 45°16' W 007°20'2104.7 18.5
2017-Sep-11 13:45N 45°17' W 007°18'1 1.1 18.5
2017-Sep-11 12:48N 45°17' W 007°19'120.7 18.5
2017-Sep-11 12:45N 45°17' W 007°18'0 0.0 18.5
2017-Sep-11 12:01N 45°17' W 007°18'1 0.9 18.5
2017-Sep-11 11:11N 45°18' W 007°17'0 0.0 18.5
2017-Sep-11 11:09N 45°18' W 007°17'2 3.8 18.5
2017-Sep-11 10:31N 45°19' W 007°14'347.8 18.5
2017-Sep-11 10:27N 45°20' W 007°19'0 0.0 18.5
2017-Sep-11 10:22N 45°20' W 007°19'0 0.0 18.5
2017-Sep-11 10:12N 45°20' W 007°19'0 0.0 18.5
2017-Sep-11 09:59N 45°20' W 007°19'1 2.4 18.5
2017-Sep-11 09:27N 45°22' W 007°18'0 0.0 18.5
2017-Sep-11 08:53N 45°22' W 007°18'0 0.9 18.5
2017-Sep-11 08:24N 45°22' W 007°19'0 2.8 18.5
2017-Sep-11 08:15N 45°22' W 007°19'0 0.0 18.5
2017-Sep-11 08:02N 45°22' W 007°19'1 1.5 18.5
2017-Sep-11 07:21N 45°22' W 007°20'0 0.0 18.5
2017-Sep-11 07:13N 45°22' W 007°20'0 4.2 18.5
2017-Sep-11 07:07N 45°22' W 007°21'0 0.0 18.5
2017-Sep-11 06:41N 45°22' W 007°21'0 1.4 18.5
2017-Sep-11 06:23N 45°22' W 007°22'0 0.7 18.5
2017-Sep-11 05:47N 45°22' W 007°22'0 0.0 18.6
2017-Sep-11 05:42N 45°22' W 007°22'1 0.8 18.6
2017-Sep-11 04:45N 45°22' W 007°23'0 0.0 18.6
2017-Sep-11 04:42N 45°22' W 007°23'0 0.6 18.6
2017-Sep-11 04:01N 45°22' W 007°23'229.8 18.6
2017-Sep-11 03:57N 45°23' W 007°22'0 0.0 18.6
2017-Sep-11 02:18N 45°23' W 007°22'0 0.0
2017-Sep-10 22:56N 45°23' W 007°22'1 7.6 18.7
2017-Sep-10 22:46N 45°25' W 007°22'0 0.0 18.7
2017-Sep-10 22:08N 45°25' W 007°22'1 9.8 18.7
2017-Sep-10 21:59N 45°26' W 007°20'0 0.0 18.7
2017-Sep-10 21:15N 45°26' W 007°20'112.0 18.6
2017-Sep-10 21:08N 45°26' W 007°22'0 0.0 18.6
2017-Sep-10 21:05N 45°26' W 007°22'0 0.0 18.6
2017-Sep-10 20:44N 45°26' W 007°22'0 2.8 18.7
2017-Sep-10 20:35N 45°26' W 007°23'1 6.3 18.7
2017-Sep-10 20:28N 45°27' W 007°22'112.0 18.7
2017-Sep-10 20:25N 45°26' W 007°22'   18.7

Dump ship's entire track history